sensor_id;sensor_type;location;lat;lon;timestamp;P1;durP1;ratioP1;P2;durP2;ratioP2
27333;SDS011;14817;57.104;-2.094;2023-07-28T00:02:00;38.72;;;4.13;;
27333;SDS011;14817;57.104;-2.094;2023-07-28T00:04:27;53.22;;;5.95;;
27333;SDS011;14817;57.104;-2.094;2023-07-28T00:06:54;54.10;;;4.50;;
27333;SDS011;14817;57.104;-2.094;2023-07-28T00:09:21;137.45;;;9.43;;
27333;SDS011;14817;57.104;-2.094;2023-07-28T00:11:49;43.30;;;4.63;;
27333;SDS011;14817;57.104;-2.094;2023-07-28T00:14:16;33.97;;;3.67;;
27333;SDS011;14817;57.104;-2.094;2023-07-28T00:16:43;18.33;;;3.25;;
27333;SDS011;14817;57.104;-2.094;2023-07-28T00:19:10;23.67;;;3.10;;
27333;SDS011;14817;57.104;-2.094;2023-07-28T00:21:37;22.92;;;3.08;;
27333;SDS011;14817;57.104;-2.094;2023-07-28T00:24:04;12.85;;;2.55;;
27333;SDS011;14817;57.104;-2.094;2023-07-28T00:26:31;20.58;;;2.75;;
27333;SDS011;14817;57.104;-2.094;2023-07-28T00:28:58;24.70;;;2.90;;
27333;SDS011;14817;57.104;-2.094;2023-07-28T00:31:25;44.88;;;4.43;;
27333;SDS011;14817;57.104;-2.094;2023-07-28T00:33:52;21.50;;;3.38;;
27333;SDS011;14817;57.104;-2.094;2023-07-28T00:36:19;36.58;;;4.13;;
27333;SDS011;14817;57.104;-2.094;2023-07-28T00:38:46;36.88;;;4.18;;
27333;SDS011;14817;57.104;-2.094;2023-07-28T00:41:13;21.83;;;3.63;;
27333;SDS011;14817;57.104;-2.094;2023-07-28T00:43:40;39.15;;;4.97;;
27333;SDS011;14817;57.104;-2.094;2023-07-28T00:46:06;23.88;;;4.30;;
27333;SDS011;14817;57.104;-2.094;2023-07-28T00:48:36;26.73;;;4.03;;
27333;SDS011;14817;57.104;-2.094;2023-07-28T00:51:03;17.60;;;3.20;;
27333;SDS011;14817;57.104;-2.094;2023-07-28T00:53:30;32.80;;;3.92;;
27333;SDS011;14817;57.104;-2.094;2023-07-28T00:55:57;20.92;;;3.28;;
27333;SDS011;14817;57.104;-2.094;2023-07-28T00:58:24;15.75;;;3.85;;
27333;SDS011;14817;57.104;-2.094;2023-07-28T01:00:51;19.40;;;3.85;;
27333;SDS011;14817;57.104;-2.094;2023-07-28T01:03:18;16.63;;;3.97;;
27333;SDS011;14817;57.104;-2.094;2023-07-28T01:05:50;12.95;;;3.85;;
27333;SDS011;14817;57.104;-2.094;2023-07-28T01:10:59;17.13;;;4.10;;
27333;SDS011;14817;57.104;-2.094;2023-07-28T01:13:28;25.75;;;3.85;;
27333;SDS011;14817;57.104;-2.094;2023-07-28T01:15:54;15.00;;;3.75;;
27333;SDS011;14817;57.104;-2.094;2023-07-28T01:18:21;20.15;;;4.50;;
27333;SDS011;14817;57.104;-2.094;2023-07-28T01:20:48;42.80;;;5.22;;
27333;SDS011;14817;57.104;-2.094;2023-07-28T01:23:39;22.90;;;4.30;;
27333;SDS011;14817;57.104;-2.094;2023-07-28T01:26:15;11.52;;;3.90;;
27333;SDS011;14817;57.104;-2.094;2023-07-28T01:28:43;11.80;;;3.95;;
27333;SDS011;14817;57.104;-2.094;2023-07-28T01:31:11;10.55;;;4.93;;
27333;SDS011;14817;57.104;-2.094;2023-07-28T01:33:38;11.57;;;4.65;;
27333;SDS011;14817;57.104;-2.094;2023-07-28T01:36:05;10.35;;;4.60;;
27333;SDS011;14817;57.104;-2.094;2023-07-28T01:38:31;8.25;;;4.97;;
27333;SDS011;14817;57.104;-2.094;2023-07-28T01:40:58;10.88;;;5.20;;
27333;SDS011;14817;57.104;-2.094;2023-07-28T01:43:25;8.80;;;4.75;;
27333;SDS011;14817;57.104;-2.094;2023-07-28T01:45:52;11.15;;;4.43;;
27333;SDS011;14817;57.104;-2.094;2023-07-28T01:48:19;8.15;;;4.50;;
27333;SDS011;14817;57.104;-2.094;2023-07-28T01:50:46;8.63;;;4.57;;
27333;SDS011;14817;57.104;-2.094;2023-07-28T01:53:13;7.10;;;4.53;;
27333;SDS011;14817;57.104;-2.094;2023-07-28T01:55:40;12.80;;;4.50;;
27333;SDS011;14817;57.104;-2.094;2023-07-28T01:58:08;9.90;;;4.55;;
27333;SDS011;14817;57.104;-2.094;2023-07-28T02:00:36;9.23;;;5.10;;
27333;SDS011;14817;57.104;-2.094;2023-07-28T02:03:03;11.02;;;4.82;;
27333;SDS011;14817;57.104;-2.094;2023-07-28T02:05:30;9.00;;;4.88;;
27333;SDS011;14817;57.104;-2.094;2023-07-28T02:07:57;6.72;;;4.57;;
27333;SDS011;14817;57.104;-2.094;2023-07-28T02:10:25;6.07;;;4.40;;
27333;SDS011;14817;57.104;-2.094;2023-07-28T02:12:53;15.60;;;4.97;;
27333;SDS011;14817;57.104;-2.094;2023-07-28T02:15:20;17.63;;;4.32;;
27333;SDS011;14817;57.104;-2.094;2023-07-28T02:17:46;40.38;;;5.85;;
27333;SDS011;14817;57.104;-2.094;2023-07-28T02:20:14;29.00;;;5.72;;
27333;SDS011;14817;57.104;-2.094;2023-07-28T02:22:42;21.20;;;4.45;;
27333;SDS011;14817;57.104;-2.094;2023-07-28T02:25:09;56.13;;;7.35;;
27333;SDS011;14817;57.104;-2.094;2023-07-28T02:27:37;22.25;;;4.88;;
27333;SDS011;14817;57.104;-2.094;2023-07-28T02:30:05;22.75;;;4.82;;
27333;SDS011;14817;57.104;-2.094;2023-07-28T02:32:32;20.50;;;5.05;;
27333;SDS011;14817;57.104;-2.094;2023-07-28T02:34:59;22.80;;;5.57;;
27333;SDS011;14817;57.104;-2.094;2023-07-28T02:37:26;68.40;;;8.43;;
27333;SDS011;14817;57.104;-2.094;2023-07-28T02:39:54;80.05;;;9.20;;
27333;SDS011;14817;57.104;-2.094;2023-07-28T02:42:20;42.70;;;7.68;;
27333;SDS011;14817;57.104;-2.094;2023-07-28T02:44:47;23.67;;;6.68;;
27333;SDS011;14817;57.104;-2.094;2023-07-28T02:47:14;47.42;;;7.10;;
27333;SDS011;14817;57.104;-2.094;2023-07-28T02:49:42;26.33;;;5.85;;
27333;SDS011;14817;57.104;-2.094;2023-07-28T02:52:09;56.17;;;8.32;;
27333;SDS011;14817;57.104;-2.094;2023-07-28T02:54:36;30.38;;;7.18;;
27333;SDS011;14817;57.104;-2.094;2023-07-28T02:57:03;42.80;;;6.68;;
27333;SDS011;14817;57.104;-2.094;2023-07-28T02:59:30;37.35;;;5.75;;
27333;SDS011;14817;57.104;-2.094;2023-07-28T03:01:57;26.52;;;5.35;;
27333;SDS011;14817;57.104;-2.094;2023-07-28T03:04:24;80.30;;;8.38;;
27333;SDS011;14817;57.104;-2.094;2023-07-28T03:07:13;38.78;;;7.63;;
27333;SDS011;14817;57.104;-2.094;2023-07-28T03:09:42;51.17;;;8.18;;
27333;SDS011;14817;57.104;-2.094;2023-07-28T03:12:10;98.22;;;9.18;;
27333;SDS011;14817;57.104;-2.094;2023-07-28T03:14:38;46.05;;;7.78;;
27333;SDS011;14817;57.104;-2.094;2023-07-28T03:17:04;62.33;;;8.38;;
27333;SDS011;14817;57.104;-2.094;2023-07-28T03:19:32;28.50;;;6.55;;
27333;SDS011;14817;57.104;-2.094;2023-07-28T03:21:58;25.48;;;6.45;;
27333;SDS011;14817;57.104;-2.094;2023-07-28T03:24:25;39.35;;;6.57;;
27333;SDS011;14817;57.104;-2.094;2023-07-28T03:26:52;53.50;;;6.85;;
27333;SDS011;14817;57.104;-2.094;2023-07-28T03:29:19;72.53;;;8.13;;
27333;SDS011;14817;57.104;-2.094;2023-07-28T03:31:46;28.45;;;6.47;;
27333;SDS011;14817;57.104;-2.094;2023-07-28T03:34:13;42.13;;;7.28;;
27333;SDS011;14817;57.104;-2.094;2023-07-28T03:36:40;31.33;;;5.70;;
27333;SDS011;14817;57.104;-2.094;2023-07-28T03:39:08;35.60;;;6.03;;
27333;SDS011;14817;57.104;-2.094;2023-07-28T03:41:35;19.92;;;5.70;;
27333;SDS011;14817;57.104;-2.094;2023-07-28T03:44:01;38.83;;;6.53;;
27333;SDS011;14817;57.104;-2.094;2023-07-28T03:46:28;22.00;;;5.82;;
27333;SDS011;14817;57.104;-2.094;2023-07-28T03:48:56;39.00;;;6.95;;
27333;SDS011;14817;57.104;-2.094;2023-07-28T03:51:25;35.40;;;6.07;;
27333;SDS011;14817;57.104;-2.094;2023-07-28T03:53:51;26.65;;;5.88;;
27333;SDS011;14817;57.104;-2.094;2023-07-28T03:56:20;12.27;;;5.55;;
27333;SDS011;14817;57.104;-2.094;2023-07-28T03:58:47;12.98;;;6.00;;
27333;SDS011;14817;57.104;-2.094;2023-07-28T04:01:14;15.40;;;5.53;;
27333;SDS011;14817;57.104;-2.094;2023-07-28T04:03:40;10.85;;;5.82;;
27333;SDS011;14817;57.104;-2.094;2023-07-28T04:06:11;12.73;;;5.78;;
27333;SDS011;14817;57.104;-2.094;2023-07-28T04:08:41;11.20;;;5.78;;
27333;SDS011;14817;57.104;-2.094;2023-07-28T04:11:08;7.22;;;4.18;;
27333;SDS011;14817;57.104;-2.094;2023-07-28T04:13:34;11.45;;;5.65;;
27333;SDS011;14817;57.104;-2.094;2023-07-28T04:16:01;21.48;;;7.15;;
27333;SDS011;14817;57.104;-2.094;2023-07-28T04:18:30;27.80;;;6.13;;
27333;SDS011;14817;57.104;-2.094;2023-07-28T04:20:58;28.80;;;6.78;;
27333;SDS011;14817;57.104;-2.094;2023-07-28T04:23:25;34.83;;;7.85;;
27333;SDS011;14817;57.104;-2.094;2023-07-28T04:25:52;28.60;;;6.63;;
27333;SDS011;14817;57.104;-2.094;2023-07-28T04:28:19;27.70;;;6.70;;
27333;SDS011;14817;57.104;-2.094;2023-07-28T04:30:46;21.27;;;5.55;;
27333;SDS011;14817;57.104;-2.094;2023-07-28T04:33:33;23.63;;;6.88;;
27333;SDS011;14817;57.104;-2.094;2023-07-28T04:36:04;20.42;;;6.40;;
27333;SDS011;14817;57.104;-2.094;2023-07-28T04:38:33;32.55;;;6.90;;
27333;SDS011;14817;57.104;-2.094;2023-07-28T04:41:01;20.38;;;5.38;;
27333;SDS011;14817;57.104;-2.094;2023-07-28T04:43:47;15.55;;;5.30;;
27333;SDS011;14817;57.104;-2.094;2023-07-28T04:46:14;12.73;;;6.32;;
27333;SDS011;14817;57.104;-2.094;2023-07-28T04:48:45;10.75;;;6.00;;
27333;SDS011;14817;57.104;-2.094;2023-07-28T04:51:38;17.83;;;6.97;;
27333;SDS011;14817;57.104;-2.094;2023-07-28T04:54:34;12.95;;;6.18;;
27333;SDS011;14817;57.104;-2.094;2023-07-28T04:57:01;12.65;;;6.35;;
27333;SDS011;14817;57.104;-2.094;2023-07-28T04:59:32;12.77;;;6.20;;
27333;SDS011;14817;57.104;-2.094;2023-07-28T05:01:59;10.80;;;6.28;;
27333;SDS011;14817;57.104;-2.094;2023-07-28T05:04:26;9.75;;;6.68;;
27333;SDS011;14817;57.104;-2.094;2023-07-28T05:06:53;12.95;;;6.43;;
27333;SDS011;14817;57.104;-2.094;2023-07-28T05:09:20;13.75;;;6.15;;
27333;SDS011;14817;57.104;-2.094;2023-07-28T05:11:47;14.35;;;6.85;;
27333;SDS011;14817;57.104;-2.094;2023-07-28T05:14:15;14.60;;;7.10;;
27333;SDS011;14817;57.104;-2.094;2023-07-28T05:16:42;10.35;;;6.47;;
27333;SDS011;14817;57.104;-2.094;2023-07-28T05:19:09;10.27;;;6.03;;
27333;SDS011;14817;57.104;-2.094;2023-07-28T05:21:55;16.55;;;7.05;;
27333;SDS011;14817;57.104;-2.094;2023-07-28T05:24:41;22.02;;;7.90;;
27333;SDS011;14817;57.104;-2.094;2023-07-28T05:27:08;36.25;;;8.18;;
27333;SDS011;14817;57.104;-2.094;2023-07-28T05:29:35;23.00;;;7.32;;
27333;SDS011;14817;57.104;-2.094;2023-07-28T05:32:05;30.38;;;7.80;;
27333;SDS011;14817;57.104;-2.094;2023-07-28T05:34:55;31.73;;;7.30;;
27333;SDS011;14817;57.104;-2.094;2023-07-28T05:37:22;19.75;;;7.25;;
27333;SDS011;14817;57.104;-2.094;2023-07-28T05:39:48;42.03;;;8.93;;
27333;SDS011;14817;57.104;-2.094;2023-07-28T05:42:16;34.55;;;8.45;;
27333;SDS011;14817;57.104;-2.094;2023-07-28T05:44:45;31.80;;;7.82;;
27333;SDS011;14817;57.104;-2.094;2023-07-28T05:47:12;26.50;;;8.93;;
27333;SDS011;14817;57.104;-2.094;2023-07-28T05:49:39;44.65;;;9.05;;
27333;SDS011;14817;57.104;-2.094;2023-07-28T05:52:06;41.97;;;9.15;;
27333;SDS011;14817;57.104;-2.094;2023-07-28T05:54:33;17.75;;;7.35;;
27333;SDS011;14817;57.104;-2.094;2023-07-28T05:57:00;13.85;;;7.75;;
27333;SDS011;14817;57.104;-2.094;2023-07-28T05:59:27;19.98;;;8.55;;
27333;SDS011;14817;57.104;-2.094;2023-07-28T06:01:54;15.63;;;7.55;;
27333;SDS011;14817;57.104;-2.094;2023-07-28T06:04:33;24.55;;;16.63;;
27333;SDS011;14817;57.104;-2.094;2023-07-28T06:07:02;17.13;;;9.20;;
27333;SDS011;14817;57.104;-2.094;2023-07-28T06:09:30;14.38;;;7.88;;
27333;SDS011;14817;57.104;-2.094;2023-07-28T06:11:57;21.40;;;8.60;;
27333;SDS011;14817;57.104;-2.094;2023-07-28T06:14:26;24.90;;;9.95;;
27333;SDS011;14817;57.104;-2.094;2023-07-28T06:16:54;25.63;;;9.20;;
27333;SDS011;14817;57.104;-2.094;2023-07-28T06:19:23;21.42;;;9.68;;
27333;SDS011;14817;57.104;-2.094;2023-07-28T06:21:53;25.65;;;10.75;;
27333;SDS011;14817;57.104;-2.094;2023-07-28T06:24:21;35.40;;;11.55;;
27333;SDS011;14817;57.104;-2.094;2023-07-28T06:26:48;43.72;;;11.13;;
27333;SDS011;14817;57.104;-2.094;2023-07-28T06:29:15;30.23;;;10.07;;
27333;SDS011;14817;57.104;-2.094;2023-07-28T06:31:42;34.33;;;9.45;;
27333;SDS011;14817;57.104;-2.094;2023-07-28T06:34:08;29.42;;;10.10;;
27333;SDS011;14817;57.104;-2.094;2023-07-28T06:36:35;29.67;;;11.05;;
27333;SDS011;14817;57.104;-2.094;2023-07-28T06:39:03;44.28;;;14.63;;
27333;SDS011;14817;57.104;-2.094;2023-07-28T06:41:31;41.67;;;15.93;;
27333;SDS011;14817;57.104;-2.094;2023-07-28T06:43:59;36.85;;;11.02;;
27333;SDS011;14817;57.104;-2.094;2023-07-28T06:46:27;41.08;;;10.48;;
27333;SDS011;14817;57.104;-2.094;2023-07-28T06:48:55;26.55;;;11.60;;
27333;SDS011;14817;57.104;-2.094;2023-07-28T06:51:22;54.25;;;11.38;;
27333;SDS011;14817;57.104;-2.094;2023-07-28T06:53:49;32.03;;;9.93;;
27333;SDS011;14817;57.104;-2.094;2023-07-28T06:56:17;30.38;;;9.20;;
27333;SDS011;14817;57.104;-2.094;2023-07-28T06:58:43;22.00;;;9.38;;
27333;SDS011;14817;57.104;-2.094;2023-07-28T07:01:23;15.02;;;9.13;;
27333;SDS011;14817;57.104;-2.094;2023-07-28T07:03:50;24.77;;;8.68;;
27333;SDS011;14817;57.104;-2.094;2023-07-28T07:06:16;19.23;;;9.30;;
27333;SDS011;14817;57.104;-2.094;2023-07-28T07:08:43;16.38;;;7.88;;
27333;SDS011;14817;57.104;-2.094;2023-07-28T07:11:10;18.00;;;8.20;;
27333;SDS011;14817;57.104;-2.094;2023-07-28T07:13:37;17.73;;;8.65;;
27333;SDS011;14817;57.104;-2.094;2023-07-28T07:16:04;13.27;;;7.68;;
27333;SDS011;14817;57.104;-2.094;2023-07-28T07:18:33;15.48;;;9.20;;
27333;SDS011;14817;57.104;-2.094;2023-07-28T07:21:03;12.95;;;8.38;;
27333;SDS011;14817;57.104;-2.094;2023-07-28T07:23:30;11.88;;;7.88;;
27333;SDS011;14817;57.104;-2.094;2023-07-28T07:25:56;10.52;;;6.53;;
27333;SDS011;14817;57.104;-2.094;2023-07-28T07:28:23;10.48;;;6.45;;
27333;SDS011;14817;57.104;-2.094;2023-07-28T07:30:50;11.88;;;7.25;;
27333;SDS011;14817;57.104;-2.094;2023-07-28T07:33:17;9.25;;;6.53;;
27333;SDS011;14817;57.104;-2.094;2023-07-28T07:35:45;8.73;;;6.25;;
27333;SDS011;14817;57.104;-2.094;2023-07-28T07:38:11;11.68;;;6.45;;
27333;SDS011;14817;57.104;-2.094;2023-07-28T07:40:38;11.45;;;6.75;;
27333;SDS011;14817;57.104;-2.094;2023-07-28T07:43:05;10.27;;;7.18;;
27333;SDS011;14817;57.104;-2.094;2023-07-28T07:45:32;13.85;;;6.85;;
27333;SDS011;14817;57.104;-2.094;2023-07-28T07:47:59;15.43;;;9.85;;
27333;SDS011;14817;57.104;-2.094;2023-07-28T07:50:26;16.33;;;8.63;;
27333;SDS011;14817;57.104;-2.094;2023-07-28T07:52:53;15.50;;;9.10;;
27333;SDS011;14817;57.104;-2.094;2023-07-28T07:55:20;15.15;;;9.57;;
27333;SDS011;14817;57.104;-2.094;2023-07-28T07:57:47;14.68;;;9.30;;
27333;SDS011;14817;57.104;-2.094;2023-07-28T08:00:15;18.23;;;8.43;;
27333;SDS011;14817;57.104;-2.094;2023-07-28T08:02:41;14.70;;;8.35;;
27333;SDS011;14817;57.104;-2.094;2023-07-28T08:05:12;16.03;;;9.93;;
27333;SDS011;14817;57.104;-2.094;2023-07-28T08:07:39;13.60;;;8.40;;
27333;SDS011;14817;57.104;-2.094;2023-07-28T08:10:06;14.30;;;9.52;;
27333;SDS011;14817;57.104;-2.094;2023-07-28T08:12:33;15.95;;;9.23;;
27333;SDS011;14817;57.104;-2.094;2023-07-28T08:15:00;21.55;;;11.15;;
27333;SDS011;14817;57.104;-2.094;2023-07-28T08:17:27;14.85;;;8.82;;
27333;SDS011;14817;57.104;-2.094;2023-07-28T08:19:54;11.07;;;8.20;;
27333;SDS011;14817;57.104;-2.094;2023-07-28T08:22:21;11.82;;;8.65;;
27333;SDS011;14817;57.104;-2.094;2023-07-28T08:24:48;13.18;;;9.02;;
27333;SDS011;14817;57.104;-2.094;2023-07-28T08:27:15;13.88;;;8.93;;
27333;SDS011;14817;57.104;-2.094;2023-07-28T08:29:42;12.18;;;8.23;;
27333;SDS011;14817;57.104;-2.094;2023-07-28T08:32:09;12.75;;;8.35;;
27333;SDS011;14817;57.104;-2.094;2023-07-28T08:34:36;11.45;;;8.73;;
27333;SDS011;14817;57.104;-2.094;2023-07-28T08:37:02;10.35;;;7.95;;
27333;SDS011;14817;57.104;-2.094;2023-07-28T08:39:29;10.80;;;8.27;;
27333;SDS011;14817;57.104;-2.094;2023-07-28T08:41:59;8.90;;;7.68;;
27333;SDS011;14817;57.104;-2.094;2023-07-28T08:44:31;8.80;;;7.50;;
27333;SDS011;14817;57.104;-2.094;2023-07-28T08:46:59;13.30;;;6.03;;
27333;SDS011;14817;57.104;-2.094;2023-07-28T08:49:27;6.10;;;4.97;;
27333;SDS011;14817;57.104;-2.094;2023-07-28T08:51:58;7.93;;;4.63;;
27333;SDS011;14817;57.104;-2.094;2023-07-28T08:54:26;7.03;;;4.38;;
27333;SDS011;14817;57.104;-2.094;2023-07-28T08:56:53;5.97;;;4.35;;
27333;SDS011;14817;57.104;-2.094;2023-07-28T08:59:21;9.73;;;5.18;;
27333;SDS011;14817;57.104;-2.094;2023-07-28T09:01:53;7.00;;;4.60;;
27333;SDS011;14817;57.104;-2.094;2023-07-28T09:04:22;6.60;;;4.97;;
27333;SDS011;14817;57.104;-2.094;2023-07-28T09:06:49;7.18;;;4.72;;
27333;SDS011;14817;57.104;-2.094;2023-07-28T09:09:18;4.68;;;3.83;;
27333;SDS011;14817;57.104;-2.094;2023-07-28T09:11:52;7.68;;;3.55;;
27333;SDS011;14817;57.104;-2.094;2023-07-28T09:14:21;6.28;;;2.75;;
27333;SDS011;14817;57.104;-2.094;2023-07-28T09:16:52;5.28;;;3.25;;
27333;SDS011;14817;57.104;-2.094;2023-07-28T09:19:20;3.65;;;3.03;;
27333;SDS011;14817;57.104;-2.094;2023-07-28T09:21:57;3.85;;;3.00;;
27333;SDS011;14817;57.104;-2.094;2023-07-28T09:24:32;10.38;;;6.35;;
27333;SDS011;14817;57.104;-2.094;2023-07-28T09:27:00;21.92;;;9.60;;
27333;SDS011;14817;57.104;-2.094;2023-07-28T09:29:28;8.95;;;6.30;;
27333;SDS011;14817;57.104;-2.094;2023-07-28T09:32:05;7.72;;;2.83;;
27333;SDS011;14817;57.104;-2.094;2023-07-28T09:34:32;6.07;;;2.00;;
27333;SDS011;14817;57.104;-2.094;2023-07-28T09:37:00;5.95;;;2.33;;
27333;SDS011;14817;57.104;-2.094;2023-07-28T09:39:27;5.55;;;2.17;;
27333;SDS011;14817;57.104;-2.094;2023-07-28T09:41:54;6.55;;;2.00;;
27333;SDS011;14817;57.104;-2.094;2023-07-28T09:44:25;6.82;;;2.50;;
27333;SDS011;14817;57.104;-2.094;2023-07-28T09:46:53;5.55;;;2.08;;
27333;SDS011;14817;57.104;-2.094;2023-07-28T09:52:03;2.30;;;1.33;;
27333;SDS011;14817;57.104;-2.094;2023-07-28T09:54:33;1.67;;;1.08;;
27333;SDS011;14817;57.104;-2.094;2023-07-28T09:59:37;2.75;;;0.80;;
27333;SDS011;14817;57.104;-2.094;2023-07-28T10:02:06;7.53;;;1.25;;
27333;SDS011;14817;57.104;-2.094;2023-07-28T10:04:34;6.00;;;1.25;;
27333;SDS011;14817;57.104;-2.094;2023-07-28T10:07:03;2.80;;;1.30;;
27333;SDS011;14817;57.104;-2.094;2023-07-28T10:09:33;2.75;;;1.10;;
27333;SDS011;14817;57.104;-2.094;2023-07-28T10:12:00;3.28;;;0.98;;
27333;SDS011;14817;57.104;-2.094;2023-07-28T10:14:29;2.90;;;1.05;;
27333;SDS011;14817;57.104;-2.094;2023-07-28T10:17:06;12.23;;;2.00;;
27333;SDS011;14817;57.104;-2.094;2023-07-28T10:19:41;3.15;;;1.23;;
27333;SDS011;14817;57.104;-2.094;2023-07-28T10:22:10;7.35;;;1.40;;
27333;SDS011;14817;57.104;-2.094;2023-07-28T10:24:51;5.13;;;1.50;;
27333;SDS011;14817;57.104;-2.094;2023-07-28T10:29:59;4.70;;;1.38;;
27333;SDS011;14817;57.104;-2.094;2023-07-28T10:32:28;4.25;;;1.15;;
27333;SDS011;14817;57.104;-2.094;2023-07-28T10:37:43;4.03;;;1.10;;
27333;SDS011;14817;57.104;-2.094;2023-07-28T10:40:30;4.18;;;1.00;;
27333;SDS011;14817;57.104;-2.094;2023-07-28T10:43:02;2.57;;;0.70;;
27333;SDS011;14817;57.104;-2.094;2023-07-28T10:45:31;1.38;;;0.60;;
27333;SDS011;14817;57.104;-2.094;2023-07-28T10:47:59;7.72;;;0.93;;
27333;SDS011;14817;57.104;-2.094;2023-07-28T10:50:28;5.60;;;1.70;;
27333;SDS011;14817;57.104;-2.094;2023-07-28T10:52:58;10.07;;;1.70;;
27333;SDS011;14817;57.104;-2.094;2023-07-28T10:55:26;5.88;;;0.98;;
27333;SDS011;14817;57.104;-2.094;2023-07-28T10:57:54;2.50;;;0.70;;
27333;SDS011;14817;57.104;-2.094;2023-07-28T11:00:22;4.15;;;1.20;;
27333;SDS011;14817;57.104;-2.094;2023-07-28T11:02:50;4.43;;;0.68;;
27333;SDS011;14817;57.104;-2.094;2023-07-28T11:05:20;7.38;;;0.73;;
27333;SDS011;14817;57.104;-2.094;2023-07-28T11:07:51;7.57;;;0.90;;
27333;SDS011;14817;57.104;-2.094;2023-07-28T11:10:21;3.57;;;0.70;;
27333;SDS011;14817;57.104;-2.094;2023-07-28T11:12:49;2.00;;;0.60;;
27333;SDS011;14817;57.104;-2.094;2023-07-28T11:15:18;3.03;;;0.70;;
27333;SDS011;14817;57.104;-2.094;2023-07-28T11:17:46;6.47;;;0.70;;
27333;SDS011;14817;57.104;-2.094;2023-07-28T11:25:23;2.05;;;0.82;;
27333;SDS011;14817;57.104;-2.094;2023-07-28T11:27:51;1.33;;;0.60;;
27333;SDS011;14817;57.104;-2.094;2023-07-28T11:30:19;1.92;;;0.60;;
27333;SDS011;14817;57.104;-2.094;2023-07-28T11:32:47;2.33;;;0.60;;
27333;SDS011;14817;57.104;-2.094;2023-07-28T11:35:15;3.05;;;0.52;;
27333;SDS011;14817;57.104;-2.094;2023-07-28T11:37:45;1.95;;;0.40;;
27333;SDS011;14817;57.104;-2.094;2023-07-28T11:40:14;1.90;;;0.50;;
27333;SDS011;14817;57.104;-2.094;2023-07-28T11:42:47;2.00;;;0.70;;
27333;SDS011;14817;57.104;-2.094;2023-07-28T11:45:16;1.73;;;0.50;;
27333;SDS011;14817;57.104;-2.094;2023-07-28T11:48:06;1.05;;;0.45;;
27333;SDS011;14817;57.104;-2.094;2023-07-28T11:50:40;0.68;;;0.45;;
27333;SDS011;14817;57.104;-2.094;2023-07-28T11:53:08;1.45;;;0.73;;
27333;SDS011;14817;57.104;-2.094;2023-07-28T11:55:36;2.05;;;0.40;;
27333;SDS011;14817;57.104;-2.094;2023-07-28T11:58:04;1.90;;;0.60;;
27333;SDS011;14817;57.104;-2.094;2023-07-28T12:00:33;0.88;;;0.60;;
27333;SDS011;14817;57.104;-2.094;2023-07-28T12:03:05;1.67;;;0.70;;
27333;SDS011;14817;57.104;-2.094;2023-07-28T12:05:52;1.90;;;0.70;;
27333;SDS011;14817;57.104;-2.094;2023-07-28T12:08:34;2.47;;;0.60;;
27333;SDS011;14817;57.104;-2.094;2023-07-28T12:11:05;1.30;;;0.73;;
27333;SDS011;14817;57.104;-2.094;2023-07-28T12:13:48;1.55;;;0.70;;
27333;SDS011;14817;57.104;-2.094;2023-07-28T12:19:21;2.10;;;0.90;;
27333;SDS011;14817;57.104;-2.094;2023-07-28T12:21:47;2.85;;;1.10;;
27333;SDS011;14817;57.104;-2.094;2023-07-28T12:24:14;1.13;;;0.90;;
27333;SDS011;14817;57.104;-2.094;2023-07-28T12:26:41;2.13;;;1.20;;
27333;SDS011;14817;57.104;-2.094;2023-07-28T12:29:08;1.13;;;1.00;;
27333;SDS011;14817;57.104;-2.094;2023-07-28T12:31:37;2.70;;;1.08;;
27333;SDS011;14817;57.104;-2.094;2023-07-28T12:34:07;3.63;;;1.10;;
27333;SDS011;14817;57.104;-2.094;2023-07-28T12:36:33;6.35;;;1.40;;
27333;SDS011;14817;57.104;-2.094;2023-07-28T12:39:03;3.00;;;1.30;;
27333;SDS011;14817;57.104;-2.094;2023-07-28T12:41:50;3.65;;;1.40;;
27333;SDS011;14817;57.104;-2.094;2023-07-28T12:44:20;3.45;;;1.35;;
27333;SDS011;14817;57.104;-2.094;2023-07-28T12:47:07;1.35;;;1.25;;
27333;SDS011;14817;57.104;-2.094;2023-07-28T12:49:34;2.55;;;1.17;;
27333;SDS011;14817;57.104;-2.094;2023-07-28T12:52:03;3.33;;;1.67;;
27333;SDS011;14817;57.104;-2.094;2023-07-28T12:54:33;4.13;;;1.80;;
27333;SDS011;14817;57.104;-2.094;2023-07-28T12:57:10;5.47;;;1.58;;
27333;SDS011;14817;57.104;-2.094;2023-07-28T12:59:39;5.85;;;1.95;;
27333;SDS011;14817;57.104;-2.094;2023-07-28T13:02:09;2.35;;;1.58;;
27333;SDS011;14817;57.104;-2.094;2023-07-28T13:04:36;2.45;;;1.70;;
27333;SDS011;14817;57.104;-2.094;2023-07-28T13:07:03;1.80;;;1.52;;
27333;SDS011;14817;57.104;-2.094;2023-07-28T13:09:33;3.65;;;2.00;;
27333;SDS011;14817;57.104;-2.094;2023-07-28T13:12:02;3.83;;;1.70;;
27333;SDS011;14817;57.104;-2.094;2023-07-28T13:14:32;5.53;;;2.28;;
27333;SDS011;14817;57.104;-2.094;2023-07-28T13:17:00;4.47;;;2.00;;
27333;SDS011;14817;57.104;-2.094;2023-07-28T13:19:27;3.85;;;2.30;;
27333;SDS011;14817;57.104;-2.094;2023-07-28T13:21:54;4.22;;;2.40;;
27333;SDS011;14817;57.104;-2.094;2023-07-28T13:24:21;5.97;;;2.30;;
27333;SDS011;14817;57.104;-2.094;2023-07-28T13:26:47;4.53;;;2.55;;
27333;SDS011;14817;57.104;-2.094;2023-07-28T13:29:14;4.70;;;2.90;;
27333;SDS011;14817;57.104;-2.094;2023-07-28T13:31:41;5.13;;;3.10;;
27333;SDS011;14817;57.104;-2.094;2023-07-28T13:34:09;6.97;;;2.58;;
27333;SDS011;14817;57.104;-2.094;2023-07-28T13:36:36;5.00;;;2.65;;
27333;SDS011;14817;57.104;-2.094;2023-07-28T13:39:03;6.28;;;2.80;;
27333;SDS011;14817;57.104;-2.094;2023-07-28T13:41:30;6.15;;;2.58;;
27333;SDS011;14817;57.104;-2.094;2023-07-28T13:43:56;3.22;;;2.28;;
27333;SDS011;14817;57.104;-2.094;2023-07-28T13:46:28;9.13;;;2.92;;
27333;SDS011;14817;57.104;-2.094;2023-07-28T13:48:55;13.20;;;3.53;;
27333;SDS011;14817;57.104;-2.094;2023-07-28T13:51:32;6.38;;;2.58;;
27333;SDS011;14817;57.104;-2.094;2023-07-28T13:54:19;11.25;;;3.47;;
27333;SDS011;14817;57.104;-2.094;2023-07-28T13:56:49;8.35;;;2.85;;
27333;SDS011;14817;57.104;-2.094;2023-07-28T13:59:19;7.47;;;3.10;;
27333;SDS011;14817;57.104;-2.094;2023-07-28T14:01:47;9.70;;;2.95;;
27333;SDS011;14817;57.104;-2.094;2023-07-28T14:04:15;6.18;;;2.80;;
27333;SDS011;14817;57.104;-2.094;2023-07-28T14:06:42;6.65;;;2.50;;
27333;SDS011;14817;57.104;-2.094;2023-07-28T14:09:08;7.65;;;2.60;;
27333;SDS011;14817;57.104;-2.094;2023-07-28T14:11:36;4.53;;;2.65;;
27333;SDS011;14817;57.104;-2.094;2023-07-28T14:14:03;6.32;;;2.60;;
27333;SDS011;14817;57.104;-2.094;2023-07-28T14:16:30;5.82;;;2.10;;
27333;SDS011;14817;57.104;-2.094;2023-07-28T14:18:57;5.72;;;2.03;;
27333;SDS011;14817;57.104;-2.094;2023-07-28T14:21:24;6.57;;;2.25;;
27333;SDS011;14817;57.104;-2.094;2023-07-28T14:23:51;8.23;;;2.28;;
27333;SDS011;14817;57.104;-2.094;2023-07-28T14:26:17;5.43;;;2.20;;
27333;SDS011;14817;57.104;-2.094;2023-07-28T14:28:44;3.67;;;2.33;;
27333;SDS011;14817;57.104;-2.094;2023-07-28T14:31:11;2.92;;;1.80;;
27333;SDS011;14817;57.104;-2.094;2023-07-28T14:33:38;2.35;;;1.80;;
27333;SDS011;14817;57.104;-2.094;2023-07-28T14:36:05;2.95;;;1.70;;
27333;SDS011;14817;57.104;-2.094;2023-07-28T14:38:31;3.65;;;1.85;;
27333;SDS011;14817;57.104;-2.094;2023-07-28T14:40:58;3.78;;;1.60;;
27333;SDS011;14817;57.104;-2.094;2023-07-28T14:43:25;2.58;;;1.67;;
27333;SDS011;14817;57.104;-2.094;2023-07-28T14:45:52;5.05;;;1.77;;
27333;SDS011;14817;57.104;-2.094;2023-07-28T14:48:19;3.47;;;1.95;;
27333;SDS011;14817;57.104;-2.094;2023-07-28T14:50:46;4.45;;;1.88;;
27333;SDS011;14817;57.104;-2.094;2023-07-28T14:53:35;2.03;;;1.83;;
27333;SDS011;14817;57.104;-2.094;2023-07-28T14:56:03;3.83;;;1.63;;
27333;SDS011;14817;57.104;-2.094;2023-07-28T14:58:32;4.10;;;1.80;;